createdAt,value
2018-06-01T00:01:07.252Z,18.80
2018-06-01T00:03:34.935Z,18.76
2018-06-01T00:06:02.631Z,18.70
2018-06-01T00:08:30.326Z,18.63
2018-06-01T00:10:57.916Z,18.60
2018-06-01T00:13:25.588Z,18.53
2018-06-01T00:15:53.232Z,18.55
2018-06-01T00:18:20.854Z,18.49
2018-06-01T00:20:48.984Z,18.48
2018-06-01T00:23:16.574Z,18.42
2018-06-01T00:25:44.235Z,18.43
2018-06-01T00:28:12.338Z,18.37
2018-06-01T00:30:39.975Z,18.33
2018-06-01T00:33:07.633Z,18.39
2018-06-01T00:35:35.483Z,18.34
2018-06-01T00:38:03.163Z,18.34
2018-06-01T00:40:30.821Z,18.30
2018-06-01T00:42:59.664Z,18.25
2018-06-01T00:45:27.365Z,18.17
2018-06-01T00:47:55.057Z,18.18
2018-06-01T00:50:22.729Z,18.17
2018-06-01T00:52:50.383Z,18.17
2018-06-01T00:55:24.816Z,18.09
2018-06-01T00:57:52.445Z,18.03
2018-06-01T01:00:20.104Z,18.03
2018-06-01T01:02:48.065Z,18.02
2018-06-01T01:05:15.794Z,17.99
2018-06-01T01:07:43.479Z,17.98
2018-06-01T01:10:11.652Z,17.96
2018-06-01T01:12:39.251Z,17.95
2018-06-01T01:15:07.011Z,17.87
2018-06-01T01:17:34.791Z,17.89
2018-06-01T01:20:02.380Z,17.88
2018-06-01T01:22:29.998Z,17.81
2018-06-01T01:24:58.199Z,17.81
2018-06-01T01:27:26.808Z,17.78
2018-06-01T01:29:54.424Z,17.76
2018-06-01T01:32:22.418Z,17.70
2018-06-01T01:34:49.989Z,17.69
2018-06-01T01:37:29.364Z,17.69
2018-06-01T01:39:57.048Z,17.67
2018-06-01T01:42:24.617Z,17.60
2018-06-01T01:44:53.427Z,17.54
2018-06-01T01:47:21.171Z,17.52
2018-06-01T01:49:54.248Z,17.54
2018-06-01T01:52:21.895Z,17.50
2018-06-01T01:54:49.481Z,17.45
2018-06-01T01:57:17.494Z,17.39
2018-06-01T01:59:45.264Z,17.39
2018-06-01T02:02:12.914Z,17.46
2018-06-01T02:04:40.578Z,17.49
2018-06-01T02:07:08.211Z,17.46
2018-06-01T02:09:35.824Z,17.41
2018-06-01T02:12:03.783Z,17.36
2018-06-01T02:14:31.402Z,17.31
2018-06-01T02:16:59.041Z,17.31
2018-06-01T02:19:27.374Z,17.29
2018-06-01T02:21:54.984Z,17.25
2018-06-01T02:24:22.587Z,17.23
2018-06-01T02:26:50.770Z,17.18
2018-06-01T02:29:18.371Z,17.15
2018-06-01T02:31:46.120Z,17.11
2018-06-01T02:34:13.887Z,17.08
2018-06-01T02:36:41.516Z,17.06
2018-06-01T02:39:09.172Z,17.05
2018-06-01T02:41:38.138Z,17.01
2018-06-01T02:44:05.708Z,16.95
2018-06-01T02:46:34.415Z,16.95
2018-06-01T02:49:02.432Z,16.93
2018-06-01T02:51:30.134Z,16.92
2018-06-01T02:53:57.856Z,16.92
2018-06-01T02:56:25.940Z,16.89
2018-06-01T02:58:53.522Z,16.90
2018-06-01T03:01:21.267Z,16.87
2018-06-01T03:03:49.139Z,16.92
2018-06-01T03:06:16.780Z,17.05
2018-06-01T03:08:44.346Z,17.15
2018-06-01T03:11:12.083Z,17.26
2018-06-01T03:13:39.669Z,17.37
2018-06-01T03:16:07.324Z,17.49
2018-06-01T03:18:35.051Z,17.67
2018-06-01T03:21:02.663Z,17.84
2018-06-01T03:23:30.372Z,18.02
2018-06-01T03:25:58.133Z,18.21
2018-06-01T03:28:25.731Z,18.40
2018-06-01T03:30:53.558Z,18.53
2018-06-01T03:33:21.204Z,18.65
2018-06-01T03:35:48.777Z,18.78
2018-06-01T03:38:16.463Z,18.89
2018-06-01T03:40:44.141Z,18.99
2018-06-01T03:43:11.765Z,19.17
2018-06-01T03:45:39.475Z,19.32
2018-06-01T03:48:07.149Z,19.49
2018-06-01T03:50:34.748Z,19.69
2018-06-01T03:53:02.398Z,19.70
2018-06-01T03:55:30.143Z,19.90
2018-06-01T03:57:57.728Z,20.03
2018-06-01T04:00:25.411Z,20.19
2018-06-01T04:02:53.088Z,20.36
2018-06-01T04:05:20.742Z,20.47
2018-06-01T04:07:48.399Z,20.70
2018-06-01T04:10:16.570Z,20.81
2018-06-01T04:12:44.174Z,20.93
2018-06-01T04:15:11.779Z,21.05
2018-06-01T04:17:39.943Z,21.23
2018-06-01T04:20:07.522Z,21.44
2018-06-01T04:22:35.133Z,21.42
2018-06-01T04:25:02.890Z,21.62
2018-06-01T04:27:30.498Z,21.84
2018-06-01T04:29:58.107Z,21.89
2018-06-01T04:32:26.008Z,22.21
2018-06-01T04:34:53.675Z,22.24
2018-06-01T04:37:21.289Z,22.44
2018-06-01T04:39:49.059Z,22.56
2018-06-01T04:42:16.631Z,22.54
2018-06-01T04:44:44.296Z,22.70
2018-06-01T04:47:12.023Z,22.87
2018-06-01T04:49:39.640Z,22.97
2018-06-01T04:52:07.259Z,23.15
2018-06-01T04:54:34.968Z,23.36
2018-06-01T04:57:02.607Z,23.37
2018-06-01T04:59:30.263Z,23.62
2018-06-01T05:01:57.946Z,24.00
2018-06-01T05:04:25.565Z,24.40
2018-06-01T05:06:53.259Z,24.57
2018-06-01T05:09:21.024Z,24.79
2018-06-01T05:11:48.708Z,25.04
2018-06-01T05:14:16.382Z,24.90
2018-06-01T05:16:44.062Z,25.29
2018-06-01T05:19:11.713Z,25.71
2018-06-01T05:21:39.339Z,26.07
2018-06-01T05:24:06.974Z,26.11
2018-06-01T05:26:34.711Z,26.37
2018-06-01T05:29:02.407Z,26.75
2018-06-01T05:31:30.142Z,27.16
2018-06-01T05:33:57.715Z,27.49
2018-06-01T05:36:25.344Z,27.64
2018-06-01T05:38:53.047Z,27.46
2018-06-01T05:41:20.647Z,27.76
2018-06-01T05:43:48.290Z,27.70
2018-06-01T05:46:16.262Z,27.83
2018-06-01T05:48:43.896Z,28.14
2018-06-01T05:51:11.481Z,28.44
2018-06-01T05:53:39.521Z,28.68
2018-06-01T05:56:07.243Z,28.49
2018-06-01T05:58:34.856Z,29.06
2018-06-01T06:01:02.997Z,28.99
2018-06-01T06:03:30.643Z,29.28
2018-06-01T06:05:58.275Z,29.57
2018-06-01T06:08:26.123Z,29.58
2018-06-01T06:10:53.802Z,29.45
2018-06-01T06:13:21.558Z,29.20
2018-06-01T06:15:49.327Z,29.00
2018-06-01T06:18:17.027Z,28.56
2018-06-01T06:20:44.616Z,27.55
2018-06-01T06:23:12.334Z,27.15
2018-06-01T06:25:39.950Z,26.66
2018-06-01T06:28:07.613Z,26.40
2018-06-01T06:30:35.310Z,26.18
2018-06-01T06:33:02.966Z,26.02
2018-06-01T06:35:31.597Z,25.76
2018-06-01T06:37:59.814Z,25.81
2018-06-01T06:40:27.561Z,25.95
2018-06-01T06:42:55.218Z,25.88
2018-06-01T06:45:22.946Z,25.88
2018-06-01T06:47:50.519Z,25.90
2018-06-01T06:50:18.213Z,25.93
2018-06-01T06:52:45.899Z,25.95
2018-06-01T06:55:13.484Z,26.01
2018-06-01T06:57:41.199Z,26.08
2018-06-01T07:00:08.901Z,26.15
2018-06-01T07:02:36.565Z,26.18
2018-06-01T07:05:04.193Z,26.14
2018-06-01T07:07:31.868Z,26.33
2018-06-01T07:09:59.463Z,26.42
2018-06-01T07:12:27.105Z,26.46
2018-06-01T07:14:54.739Z,26.59
2018-06-01T07:17:22.437Z,26.66
2018-06-01T07:19:50.082Z,26.75
2018-06-01T07:22:17.723Z,26.73
2018-06-01T07:24:45.304Z,26.86
2018-06-01T07:27:12.883Z,27.00
2018-06-01T07:29:40.512Z,27.09
2018-06-01T07:32:08.110Z,27.12
2018-06-01T07:34:35.713Z,27.28
2018-06-01T07:37:03.483Z,27.36
2018-06-01T07:39:31.076Z,27.52
2018-06-01T07:41:58.670Z,27.45
2018-06-01T07:44:26.592Z,27.56
2018-06-01T07:46:54.248Z,27.69
2018-06-01T07:49:21.814Z,27.80
2018-06-01T07:51:49.597Z,27.94
2018-06-01T07:54:17.196Z,27.96
2018-06-01T07:56:44.813Z,28.07
2018-06-01T07:59:12.590Z,28.19
2018-06-01T08:01:40.186Z,28.23
2018-06-01T08:04:07.771Z,28.35
2018-06-01T08:06:35.738Z,28.49
2018-06-01T08:09:03.405Z,28.58
2018-06-01T08:11:31.010Z,28.67
2018-06-01T08:13:58.730Z,28.78
2018-06-01T08:16:26.331Z,28.86
2018-06-01T08:18:53.936Z,28.90
2018-06-01T08:21:21.787Z,28.87
2018-06-01T08:23:49.379Z,28.90
2018-06-01T08:26:17.028Z,29.03
2018-06-01T08:28:44.676Z,29.11
2018-06-01T08:31:12.282Z,29.18
2018-06-01T08:33:39.907Z,29.14
2018-06-01T08:36:07.704Z,29.17
2018-06-01T08:38:35.305Z,29.21
2018-06-01T08:41:02.873Z,29.34
2018-06-01T08:43:30.788Z,29.48
2018-06-01T08:45:58.370Z,29.60
2018-06-01T08:48:25.962Z,29.79
2018-06-01T08:50:53.735Z,29.77
2018-06-01T08:53:21.335Z,29.75
2018-06-01T08:55:48.929Z,29.81
2018-06-01T08:58:16.537Z,29.85
2018-06-01T09:00:44.135Z,29.86
2018-06-01T09:03:11.718Z,30.03
2018-06-01T09:05:39.355Z,30.12
2018-06-01T09:08:06.928Z,30.32
2018-06-01T09:10:34.544Z,30.33
2018-06-01T09:13:02.473Z,30.52
2018-06-01T09:15:30.052Z,30.50
2018-06-01T09:17:57.625Z,30.47
2018-06-01T09:20:25.264Z,30.53
2018-06-01T09:22:52.896Z,30.67
2018-06-01T09:25:20.515Z,30.75
2018-06-01T09:27:48.151Z,30.79
2018-06-01T09:30:15.728Z,30.83
2018-06-01T09:32:43.322Z,30.96
2018-06-01T09:35:11.437Z,31.11
2018-06-01T09:37:39.043Z,31.21
2018-06-01T09:40:06.619Z,31.40
2018-06-01T09:42:34.249Z,31.44
2018-06-01T09:45:01.826Z,31.53
2018-06-01T09:47:29.406Z,31.64
2018-06-01T09:49:57.036Z,31.82
2018-06-01T09:52:24.675Z,31.90
2018-06-01T09:54:52.280Z,32.05
2018-06-01T09:57:20.356Z,32.16
2018-06-01T09:59:47.953Z,32.15
2018-06-01T10:02:15.540Z,32.30
2018-06-01T10:04:43.599Z,32.41
2018-06-01T10:07:12.349Z,32.54
2018-06-01T10:09:39.940Z,32.56
2018-06-01T10:12:07.551Z,32.19
2018-06-01T10:14:35.152Z,32.42
2018-06-01T10:17:02.763Z,32.59
2018-06-01T10:19:30.403Z,32.59
2018-06-01T10:21:58.074Z,32.32
2018-06-01T10:24:25.693Z,31.65
2018-06-01T10:26:53.335Z,31.38
2018-06-01T10:29:20.902Z,31.35
2018-06-01T10:31:48.530Z,31.17
2018-06-01T10:34:16.503Z,31.31
2018-06-01T10:36:44.135Z,31.52
2018-06-01T10:39:11.720Z,31.93
2018-06-01T10:41:39.651Z,32.03
2018-06-01T10:44:07.262Z,31.81
2018-06-01T10:46:34.871Z,31.49
2018-06-01T10:49:02.737Z,31.81
2018-06-01T10:51:30.338Z,32.18
2018-06-01T10:53:57.961Z,31.89
2018-06-01T10:56:25.608Z,31.70
2018-06-01T10:58:53.184Z,32.15
2018-06-01T11:01:20.758Z,32.03
2018-06-01T11:03:48.414Z,31.96
2018-06-01T11:06:16.039Z,31.85
2018-06-01T11:08:43.763Z,32.14
2018-06-01T11:11:11.579Z,32.59
2018-06-01T11:13:39.171Z,32.95
2018-06-01T11:16:06.824Z,33.11
2018-06-01T11:18:34.488Z,33.17
2018-06-01T11:21:02.073Z,32.64
2018-06-01T11:23:29.665Z,32.37
2018-06-01T11:25:57.304Z,32.27
2018-06-01T11:28:24.888Z,32.55
2018-06-01T11:30:52.484Z,32.89
2018-06-01T11:33:20.311Z,33.21
2018-06-01T11:35:47.910Z,33.27
2018-06-01T11:38:15.523Z,33.24
2018-06-01T11:40:44.105Z,33.17
2018-06-01T11:43:11.685Z,32.76
2018-06-01T11:45:39.263Z,32.98
2018-06-01T11:48:07.102Z,32.84
2018-06-01T11:50:34.668Z,32.55
2018-06-01T11:53:02.290Z,32.40
2018-06-01T11:55:29.911Z,32.06
2018-06-01T11:57:57.543Z,32.13
2018-06-01T12:00:25.117Z,31.83
2018-06-01T12:02:53.206Z,31.71
2018-06-01T12:05:20.800Z,31.65
2018-06-01T12:07:48.395Z,31.69
2018-06-01T12:10:16.042Z,31.72
2018-06-01T12:12:43.650Z,31.53
2018-06-01T12:15:11.252Z,31.86
2018-06-01T12:17:38.899Z,32.11
2018-06-01T12:20:06.506Z,31.82
2018-06-01T12:22:34.075Z,31.65
2018-06-01T12:25:01.721Z,32.07
2018-06-01T12:27:29.328Z,32.31
2018-06-01T12:29:56.888Z,32.52
2018-06-01T12:32:24.496Z,32.66
2018-06-01T12:34:52.100Z,32.94
2018-06-01T12:37:19.691Z,32.49
2018-06-01T12:39:47.312Z,32.17
2018-06-01T12:42:14.897Z,32.44
2018-06-01T12:44:42.459Z,32.71
2018-06-01T12:47:10.245Z,32.31
2018-06-01T12:49:37.825Z,32.66
2018-06-01T12:52:05.438Z,32.84
2018-06-01T12:54:33.079Z,32.83
2018-06-01T12:57:00.661Z,32.27
2018-06-01T12:59:28.259Z,32.60
2018-06-01T13:01:56.229Z,32.77
2018-06-01T13:04:23.833Z,32.67
2018-06-01T13:06:51.420Z,32.65
2018-06-01T13:09:19.237Z,32.93
2018-06-01T13:11:46.862Z,33.35
2018-06-01T13:14:14.476Z,33.53
2018-06-01T13:16:42.084Z,33.34
2018-06-01T13:19:09.698Z,33.50
2018-06-01T13:21:37.307Z,33.51
2018-06-01T13:24:04.959Z,33.48
2018-06-01T13:26:32.564Z,33.06
2018-06-01T13:29:00.198Z,32.66
2018-06-01T13:31:27.903Z,32.41
2018-06-01T13:33:55.504Z,32.74
2018-06-01T13:36:23.144Z,32.85
2018-06-01T13:38:50.898Z,33.17
2018-06-01T13:41:18.515Z,33.23
2018-06-01T13:43:46.117Z,32.88
2018-06-01T13:46:14.308Z,32.66
2018-06-01T13:48:41.915Z,32.10
2018-06-01T13:51:09.511Z,32.03
2018-06-01T13:53:37.248Z,32.34
2018-06-01T13:56:04.822Z,32.53
2018-06-01T13:58:32.492Z,32.90
2018-06-01T14:01:00.462Z,33.18
2018-06-01T14:03:28.067Z,33.45
2018-06-01T14:05:55.683Z,33.64
2018-06-01T14:08:23.859Z,33.56
2018-06-01T14:10:51.469Z,33.66
2018-06-01T14:13:19.069Z,33.15
2018-06-01T14:15:47.246Z,33.21
2018-06-01T14:18:14.835Z,33.23
2018-06-01T14:20:42.484Z,33.09
2018-06-01T14:23:10.411Z,33.23
2018-06-01T14:25:38.055Z,33.36
2018-06-01T14:28:05.688Z,33.21
2018-06-01T14:30:33.564Z,32.99
2018-06-01T14:33:01.207Z,32.77
2018-06-01T14:35:28.867Z,32.58
2018-06-01T14:37:56.830Z,32.56
2018-06-01T14:40:24.590Z,32.38
2018-06-01T14:42:52.239Z,32.34
2018-06-01T14:45:20.151Z,32.23
2018-06-01T14:47:47.747Z,32.18
2018-06-01T14:50:15.368Z,32.18
2018-06-01T14:52:43.343Z,31.98
2018-06-01T14:55:10.924Z,32.08
2018-06-01T14:57:38.595Z,32.18
2018-06-01T15:00:06.528Z,32.29
2018-06-01T15:02:34.114Z,32.38
2018-06-01T15:05:01.786Z,32.36
2018-06-01T15:07:29.708Z,32.22
2018-06-01T15:09:57.289Z,32.29
2018-06-01T15:12:24.908Z,32.20
2018-06-01T15:14:52.899Z,32.16
2018-06-01T15:17:20.469Z,32.14
2018-06-01T15:19:48.143Z,32.10
2018-06-01T15:22:16.298Z,31.92
2018-06-01T15:24:43.889Z,32.15
2018-06-01T15:27:11.524Z,32.14
2018-06-01T15:29:39.693Z,32.14
2018-06-01T15:32:07.319Z,32.13
2018-06-01T15:34:34.931Z,31.93
2018-06-01T15:37:02.595Z,31.94
2018-06-01T15:39:30.229Z,31.83
2018-06-01T15:41:57.858Z,31.93
2018-06-01T15:44:26.065Z,31.99
2018-06-01T15:46:53.644Z,32.06
2018-06-01T15:49:21.232Z,32.08
2018-06-01T15:51:49.001Z,31.98
2018-06-01T15:54:16.588Z,31.94
2018-06-01T15:56:44.261Z,31.87
2018-06-01T15:59:12.410Z,31.65
2018-06-01T16:01:39.992Z,31.70
2018-06-01T16:04:08.687Z,31.84
2018-06-01T16:06:36.595Z,31.93
2018-06-01T16:09:04.254Z,32.00
2018-06-01T16:11:31.838Z,32.04
2018-06-01T16:13:59.534Z,31.90
2018-06-01T16:16:27.172Z,31.86
2018-06-01T16:18:54.794Z,31.88
2018-06-01T16:21:22.511Z,31.96
2018-06-01T16:23:50.141Z,32.02
2018-06-01T16:26:17.815Z,31.74
2018-06-01T16:28:45.450Z,31.71
2018-06-01T16:31:13.115Z,31.80
2018-06-01T16:33:40.757Z,31.75
2018-06-01T16:36:08.718Z,31.52
2018-06-01T16:38:36.338Z,31.60
2018-06-01T16:41:03.959Z,31.53
2018-06-01T16:43:31.715Z,31.75
2018-06-01T16:45:59.316Z,31.61
2018-06-01T16:48:26.919Z,31.73
2018-06-01T16:50:54.889Z,31.77
2018-06-01T16:53:22.488Z,31.76
2018-06-01T16:55:50.092Z,31.78
2018-06-01T16:58:17.813Z,31.76
2018-06-01T17:00:45.463Z,31.73
2018-06-01T17:03:13.021Z,31.70
2018-06-01T17:05:41.502Z,31.63
2018-06-01T17:08:09.227Z,31.58
2018-06-01T17:10:36.898Z,31.53
2018-06-01T17:13:04.527Z,31.46
2018-06-01T17:15:32.197Z,31.44
2018-06-01T17:18:00.894Z,31.38
2018-06-01T17:20:28.584Z,31.33
2018-06-01T17:22:56.205Z,31.24
2018-06-01T17:25:23.823Z,31.09
2018-06-01T17:27:51.536Z,31.02
2018-06-01T17:30:19.171Z,30.96
2018-06-01T17:32:46.850Z,30.86
2018-06-01T17:35:15.015Z,30.76
2018-06-01T17:37:42.811Z,30.56
2018-06-01T17:40:10.417Z,30.45
2018-06-01T17:42:38.386Z,30.30
2018-06-01T17:45:06.090Z,30.14
2018-06-01T17:47:33.815Z,29.99
2018-06-01T17:50:01.674Z,29.87
2018-06-01T17:52:29.334Z,29.71
2018-06-01T17:54:56.991Z,29.62
2018-06-01T17:57:24.950Z,29.44
2018-06-01T17:59:52.539Z,29.28
2018-06-01T18:02:20.224Z,29.14
2018-06-01T18:04:47.876Z,29.00
2018-06-01T18:07:15.526Z,28.86
2018-06-01T18:09:43.173Z,28.78
2018-06-01T18:12:10.933Z,28.68
2018-06-01T18:14:38.527Z,28.60
2018-06-01T18:17:06.194Z,28.53
2018-06-01T18:19:33.847Z,28.43
2018-06-01T18:22:01.452Z,28.32
2018-06-01T18:24:29.120Z,28.17
2018-06-01T18:26:56.837Z,28.03
2018-06-01T18:29:24.434Z,27.94
2018-06-01T18:31:52.050Z,27.86
2018-06-01T18:34:19.789Z,27.77
2018-06-01T18:36:47.414Z,27.71
2018-06-01T18:39:15.060Z,27.60
2018-06-01T18:41:42.755Z,27.47
2018-06-01T18:44:10.362Z,27.39
2018-06-01T18:46:38.073Z,27.29
2018-06-01T18:49:05.965Z,27.17
2018-06-01T18:51:33.609Z,27.09
2018-06-01T18:54:01.233Z,26.99
2018-06-01T18:56:28.947Z,26.93
2018-06-01T18:58:56.617Z,26.91
2018-06-01T19:01:24.225Z,26.92
2018-06-01T19:03:51.937Z,26.86
2018-06-01T19:06:19.536Z,26.82
2018-06-01T19:08:47.265Z,26.70
2018-06-01T19:11:15.338Z,26.61
2018-06-01T19:13:43.323Z,26.49
2018-06-01T19:16:12.006Z,26.38
2018-06-01T19:18:40.001Z,26.29
2018-06-01T19:21:07.798Z,26.35
2018-06-01T19:23:36.438Z,26.29
2018-06-01T19:26:04.589Z,26.15
2018-06-01T19:28:32.314Z,26.02
2018-06-01T19:30:59.903Z,25.97
2018-06-01T19:33:27.892Z,26.04
2018-06-01T19:35:55.488Z,26.09
2018-06-01T19:38:23.086Z,26.14
2018-06-01T19:40:50.899Z,26.07
2018-06-01T19:43:18.644Z,26.04
2018-06-01T19:45:46.251Z,25.88
2018-06-01T19:48:13.978Z,25.78
2018-06-01T19:50:41.623Z,25.70
2018-06-01T19:53:09.213Z,25.77
2018-06-01T19:55:37.673Z,25.40
2018-06-01T19:58:05.441Z,25.32
2018-06-01T20:00:33.038Z,25.20
2018-06-01T20:03:00.777Z,25.20
2018-06-01T20:05:28.360Z,25.06
2018-06-01T20:07:56.019Z,25.06
2018-06-01T20:10:23.743Z,25.16
2018-06-01T20:12:51.364Z,25.18
2018-06-01T20:15:19.019Z,25.23
2018-06-01T20:17:47.016Z,25.20
2018-06-01T20:20:14.731Z,25.15
2018-06-01T20:22:42.388Z,25.09
2018-06-01T20:25:10.531Z,25.12
2018-06-01T20:27:38.119Z,25.00
2018-06-01T20:30:05.761Z,25.04
2018-06-01T20:32:33.726Z,25.02
2018-06-01T20:35:01.305Z,24.97
2018-06-01T20:37:28.932Z,24.92
2018-06-01T20:39:56.675Z,24.85
2018-06-01T20:42:24.433Z,24.79
2018-06-01T20:44:52.143Z,24.74
2018-06-01T20:47:20.045Z,24.69
2018-06-01T20:49:47.616Z,24.37
2018-06-01T20:52:15.280Z,24.43
2018-06-01T20:54:43.263Z,24.45
2018-06-01T20:57:10.828Z,24.35
2018-06-01T20:59:38.530Z,24.37
2018-06-01T21:02:06.210Z,24.23
2018-06-01T21:04:33.808Z,24.13
2018-06-01T21:07:01.473Z,24.00
2018-06-01T21:09:29.365Z,23.97
2018-06-01T21:11:56.997Z,23.95
2018-06-01T21:14:24.638Z,23.88
2018-06-01T21:16:52.625Z,23.78
2018-06-01T21:19:20.222Z,23.59
2018-06-01T21:21:47.887Z,23.58
2018-06-01T21:24:15.799Z,23.49
2018-06-01T21:26:43.423Z,23.46
2018-06-01T21:29:11.035Z,23.40
2018-06-01T21:31:38.734Z,23.25
2018-06-01T21:34:06.382Z,23.21
2018-06-01T21:36:34.012Z,23.11
2018-06-01T21:39:01.962Z,23.05
2018-06-01T21:41:29.603Z,23.03
2018-06-01T21:43:57.217Z,22.91
2018-06-01T21:46:25.134Z,22.85
2018-06-01T21:48:52.723Z,22.79
2018-06-01T21:51:20.357Z,22.77
2018-06-01T21:53:48.068Z,22.65
2018-06-01T21:56:15.722Z,22.60
2018-06-01T21:58:43.373Z,22.63
2018-06-01T22:01:11.079Z,22.61
2018-06-01T22:03:39.775Z,22.51
2018-06-01T22:06:07.371Z,22.50
2018-06-01T22:08:35.211Z,22.59
2018-06-01T22:11:02.873Z,22.53
2018-06-01T22:13:30.575Z,22.62
2018-06-01T22:15:58.383Z,22.66
2018-06-01T22:18:26.092Z,22.58
2018-06-01T22:20:53.719Z,22.58
2018-06-01T22:23:21.881Z,22.53
2018-06-01T22:25:49.506Z,22.48
2018-06-01T22:28:17.135Z,22.48
2018-06-01T22:30:45.098Z,22.27
2018-06-01T22:33:12.812Z,22.21
2018-06-01T22:35:40.512Z,22.17
2018-06-01T22:38:08.437Z,22.05
2018-06-01T22:40:36.023Z,22.00
2018-06-01T22:43:03.669Z,21.93
2018-06-01T22:45:31.358Z,22.01
2018-06-01T22:47:58.967Z,21.81
2018-06-01T22:50:26.632Z,21.77
2018-06-01T22:52:54.648Z,21.82
2018-06-01T22:55:22.364Z,21.83
2018-06-01T22:57:49.988Z,21.81
2018-06-01T23:00:32.656Z,21.83
2018-06-01T23:03:00.314Z,21.84
2018-06-01T23:05:27.978Z,21.82
2018-06-01T23:07:55.908Z,21.80
2018-06-01T23:10:23.491Z,21.73
2018-06-01T23:12:51.130Z,21.74
2018-06-01T23:15:19.307Z,21.70
2018-06-01T23:17:46.904Z,21.68
2018-06-01T23:20:14.561Z,21.58
2018-06-01T23:22:42.224Z,21.59
2018-06-01T23:25:09.849Z,21.58
2018-06-01T23:27:37.480Z,21.54
2018-06-01T23:30:05.672Z,21.53
2018-06-01T23:32:33.280Z,21.52
2018-06-01T23:35:00.879Z,21.45
2018-06-01T23:37:28.821Z,21.40
2018-06-01T23:39:56.423Z,21.33
2018-06-01T23:42:24.067Z,21.27
2018-06-01T23:44:51.976Z,21.23
2018-06-01T23:47:19.602Z,21.13
2018-06-01T23:49:47.290Z,20.97
2018-06-01T23:52:14.963Z,20.88
2018-06-01T23:54:42.552Z,20.91
2018-06-01T23:57:10.237Z,21.04
2018-06-01T23:59:38.388Z,20.99
